sensor_id;sensor_type;location;lat;lon;timestamp;P1;durP1;ratioP1;P2;durP2;ratioP2
12800;SDS011;6464;42.494;27.470;2023-04-25T04:02:31;0.00;;;0.00;;
12800;SDS011;6464;42.494;27.470;2023-04-25T04:05:00;0.00;;;0.00;;
12800;SDS011;6464;42.494;27.470;2023-04-25T04:07:27;0.00;;;0.00;;
12800;SDS011;6464;42.494;27.470;2023-04-25T04:09:55;0.00;;;0.00;;
12800;SDS011;6464;42.494;27.470;2023-04-25T04:12:22;0.00;;;0.00;;
12800;SDS011;6464;42.494;27.470;2023-04-25T04:14:50;0.00;;;0.00;;
12800;SDS011;6464;42.494;27.470;2023-04-25T04:17:17;0.00;;;0.00;;
12800;SDS011;6464;42.494;27.470;2023-04-25T04:19:46;0.00;;;0.00;;
12800;SDS011;6464;42.494;27.470;2023-04-25T04:22:13;0.00;;;0.00;;
12800;SDS011;6464;42.494;27.470;2023-04-25T04:24:41;0.00;;;0.00;;
12800;SDS011;6464;42.494;27.470;2023-04-25T04:27:09;0.00;;;0.00;;
12800;SDS011;6464;42.494;27.470;2023-04-25T04:29:37;0.00;;;0.00;;
12800;SDS011;6464;42.494;27.470;2023-04-25T04:32:05;0.00;;;0.00;;
12800;SDS011;6464;42.494;27.470;2023-04-25T04:34:33;0.00;;;0.00;;
12800;SDS011;6464;42.494;27.470;2023-04-25T04:37:02;0.00;;;0.00;;
12800;SDS011;6464;42.494;27.470;2023-04-25T04:39:30;0.00;;;0.00;;
12800;SDS011;6464;42.494;27.470;2023-04-25T04:41:57;0.00;;;0.00;;
12800;SDS011;6464;42.494;27.470;2023-04-25T04:44:24;0.00;;;0.00;;
12800;SDS011;6464;42.494;27.470;2023-04-25T04:46:51;0.00;;;0.00;;
12800;SDS011;6464;42.494;27.470;2023-04-25T04:49:19;0.00;;;0.00;;
12800;SDS011;6464;42.494;27.470;2023-04-25T04:51:48;0.00;;;0.00;;
12800;SDS011;6464;42.494;27.470;2023-04-25T04:54:16;0.00;;;0.00;;
12800;SDS011;6464;42.494;27.470;2023-04-25T04:56:43;0.00;;;0.00;;
12800;SDS011;6464;42.494;27.470;2023-04-25T04:59:10;0.00;;;0.00;;
12800;SDS011;6464;42.494;27.470;2023-04-25T05:01:38;0.07;;;0.07;;
12800;SDS011;6464;42.494;27.470;2023-04-25T05:04:05;0.10;;;0.10;;
12800;SDS011;6464;42.494;27.470;2023-04-25T05:06:32;0.10;;;0.10;;
12800;SDS011;6464;42.494;27.470;2023-04-25T05:08:59;0.10;;;0.10;;
12800;SDS011;6464;42.494;27.470;2023-04-25T05:11:28;0.20;;;0.20;;
12800;SDS011;6464;42.494;27.470;2023-04-25T05:13:57;0.20;;;0.20;;
12800;SDS011;6464;42.494;27.470;2023-04-25T05:16:27;0.20;;;0.20;;
12800;SDS011;6464;42.494;27.470;2023-04-25T05:19:01;0.20;;;0.20;;
12800;SDS011;6464;42.494;27.470;2023-04-25T05:21:32;0.10;;;0.10;;
12800;SDS011;6464;42.494;27.470;2023-04-25T05:24:01;0.10;;;0.10;;
12800;SDS011;6464;42.494;27.470;2023-04-25T05:26:34;0.10;;;0.10;;
12800;SDS011;6464;42.494;27.470;2023-04-25T05:29:02;0.10;;;0.10;;
12800;SDS011;6464;42.494;27.470;2023-04-25T05:31:30;0.10;;;0.10;;
12800;SDS011;6464;42.494;27.470;2023-04-25T05:33:58;0.20;;;0.20;;
12800;SDS011;6464;42.494;27.470;2023-04-25T05:36:32;0.20;;;0.20;;
12800;SDS011;6464;42.494;27.470;2023-04-25T05:39:05;0.10;;;0.10;;
12800;SDS011;6464;42.494;27.470;2023-04-25T05:41:39;0.10;;;0.10;;
12800;SDS011;6464;42.494;27.470;2023-04-25T05:44:08;0.10;;;0.10;;
12800;SDS011;6464;42.494;27.470;2023-04-25T05:46:37;0.10;;;0.10;;
12800;SDS011;6464;42.494;27.470;2023-04-25T05:49:10;0.10;;;0.10;;
12800;SDS011;6464;42.494;27.470;2023-04-25T05:51:44;0.10;;;0.10;;
12800;SDS011;6464;42.494;27.470;2023-04-25T05:54:12;0.10;;;0.10;;
12800;SDS011;6464;42.494;27.470;2023-04-25T05:56:45;0.10;;;0.10;;
12800;SDS011;6464;42.494;27.470;2023-04-25T05:59:18;0.20;;;0.20;;
12800;SDS011;6464;42.494;27.470;2023-04-25T06:01:49;0.30;;;0.30;;
12800;SDS011;6464;42.494;27.470;2023-04-25T06:04:19;0.40;;;0.40;;
12800;SDS011;6464;42.494;27.470;2023-04-25T06:06:51;0.30;;;0.30;;
12800;SDS011;6464;42.494;27.470;2023-04-25T06:09:27;0.30;;;0.30;;
12800;SDS011;6464;42.494;27.470;2023-04-25T06:12:03;0.20;;;0.20;;
12800;SDS011;6464;42.494;27.470;2023-04-25T06:14:38;0.30;;;0.30;;
12800;SDS011;6464;42.494;27.470;2023-04-25T06:17:13;0.40;;;0.40;;
12800;SDS011;6464;42.494;27.470;2023-04-25T06:19:42;0.40;;;0.40;;
12800;SDS011;6464;42.494;27.470;2023-04-25T06:22:10;0.40;;;0.40;;
12800;SDS011;6464;42.494;27.470;2023-04-25T06:24:40;0.30;;;0.30;;
12800;SDS011;6464;42.494;27.470;2023-04-25T06:27:10;0.30;;;0.30;;
12800;SDS011;6464;42.494;27.470;2023-04-25T06:29:47;0.30;;;0.30;;
12800;SDS011;6464;42.494;27.470;2023-04-25T06:32:18;0.40;;;0.40;;
12800;SDS011;6464;42.494;27.470;2023-04-25T06:34:47;0.40;;;0.40;;
12800;SDS011;6464;42.494;27.470;2023-04-25T06:37:19;0.50;;;0.50;;
12800;SDS011;6464;42.494;27.470;2023-04-25T06:40:18;0.70;;;0.70;;
12800;SDS011;6464;42.494;27.470;2023-04-25T06:42:46;0.60;;;0.60;;
12800;SDS011;6464;42.494;27.470;2023-04-25T06:45:13;0.70;;;0.70;;
12800;SDS011;6464;42.494;27.470;2023-04-25T06:47:40;0.60;;;0.60;;
12800;SDS011;6464;42.494;27.470;2023-04-25T06:50:08;0.70;;;0.70;;
12800;SDS011;6464;42.494;27.470;2023-04-25T06:52:36;0.80;;;0.80;;
12800;SDS011;6464;42.494;27.470;2023-04-25T06:55:03;1.00;;;1.00;;
12800;SDS011;6464;42.494;27.470;2023-04-25T06:57:32;1.10;;;1.10;;
12800;SDS011;6464;42.494;27.470;2023-04-25T06:59:59;1.20;;;1.20;;
12800;SDS011;6464;42.494;27.470;2023-04-25T07:02:26;0.90;;;0.90;;
12800;SDS011;6464;42.494;27.470;2023-04-25T07:04:53;0.70;;;0.70;;
12800;SDS011;6464;42.494;27.470;2023-04-25T07:07:24;0.50;;;0.50;;
12800;SDS011;6464;42.494;27.470;2023-04-25T07:09:52;0.50;;;0.50;;
12800;SDS011;6464;42.494;27.470;2023-04-25T07:12:19;0.40;;;0.40;;
12800;SDS011;6464;42.494;27.470;2023-04-25T07:14:48;0.50;;;0.50;;
12800;SDS011;6464;42.494;27.470;2023-04-25T07:17:15;1.00;;;1.00;;
12800;SDS011;6464;42.494;27.470;2023-04-25T07:19:42;1.27;;;1.27;;
12800;SDS011;6464;42.494;27.470;2023-04-25T07:22:09;2.40;;;2.40;;
12800;SDS011;6464;42.494;27.470;2023-04-25T07:24:37;3.10;;;3.10;;
12800;SDS011;6464;42.494;27.470;2023-04-25T07:27:04;3.20;;;3.20;;
12800;SDS011;6464;42.494;27.470;2023-04-25T07:29:31;3.30;;;3.30;;
12800;SDS011;6464;42.494;27.470;2023-04-25T07:32:02;3.40;;;3.40;;
12800;SDS011;6464;42.494;27.470;2023-04-25T07:34:29;3.20;;;3.20;;
12800;SDS011;6464;42.494;27.470;2023-04-25T07:36:57;3.10;;;3.10;;
12800;SDS011;6464;42.494;27.470;2023-04-25T07:39:25;3.00;;;3.00;;
12800;SDS011;6464;42.494;27.470;2023-04-25T07:41:52;2.97;;;2.97;;
12800;SDS011;6464;42.494;27.470;2023-04-25T07:44:20;3.60;;;3.60;;
12800;SDS011;6464;42.494;27.470;2023-04-25T07:46:47;3.70;;;3.65;;
12800;SDS011;6464;42.494;27.470;2023-04-25T07:49:15;3.40;;;3.40;;
12800;SDS011;6464;42.494;27.470;2023-04-25T07:51:42;3.40;;;3.40;;
12800;SDS011;6464;42.494;27.470;2023-04-25T07:54:09;4.00;;;3.90;;
12800;SDS011;6464;42.494;27.470;2023-04-25T07:56:37;3.40;;;3.40;;
12800;SDS011;6464;42.494;27.470;2023-04-25T07:59:07;3.30;;;3.30;;
12800;SDS011;6464;42.494;27.470;2023-04-25T08:01:58;3.00;;;3.00;;
12800;SDS011;6464;42.494;27.470;2023-04-25T08:10:42;3.13;;;3.13;;
12800;SDS011;6464;42.494;27.470;2023-04-25T08:13:21;3.20;;;3.20;;
12800;SDS011;6464;42.494;27.470;2023-04-25T08:16:17;2.90;;;2.90;;
12800;SDS011;6464;42.494;27.470;2023-04-25T08:18:49;2.70;;;2.70;;
12800;SDS011;6464;42.494;27.470;2023-04-25T08:21:22;2.60;;;2.60;;
12800;SDS011;6464;42.494;27.470;2023-04-25T08:24:17;2.40;;;2.40;;
12800;SDS011;6464;42.494;27.470;2023-04-25T08:27:16;2.40;;;2.40;;
12800;SDS011;6464;42.494;27.470;2023-04-25T08:29:57;2.40;;;2.40;;
12800;SDS011;6464;42.494;27.470;2023-04-25T08:38:20;3.30;;;3.30;;
12800;SDS011;6464;42.494;27.470;2023-04-25T08:53:15;6.40;;;6.20;;
12800;SDS011;6464;42.494;27.470;2023-04-25T08:56:00;4.60;;;4.50;;
12800;SDS011;6464;42.494;27.470;2023-04-25T09:10:45;4.80;;;4.70;;
12800;SDS011;6464;42.494;27.470;2023-04-25T09:19:25;4.80;;;4.70;;
12800;SDS011;6464;42.494;27.470;2023-04-25T09:22:11;5.20;;;5.10;;
12800;SDS011;6464;42.494;27.470;2023-04-25T09:24:54;5.20;;;5.10;;
12800;SDS011;6464;42.494;27.470;2023-04-25T09:27:29;5.20;;;5.10;;
12800;SDS011;6464;42.494;27.470;2023-04-25T09:29:58;5.30;;;5.20;;
12800;SDS011;6464;42.494;27.470;2023-04-25T09:32:25;5.55;;;5.45;;
12800;SDS011;6464;42.494;27.470;2023-04-25T09:34:53;6.00;;;5.90;;
12800;SDS011;6464;42.494;27.470;2023-04-25T09:37:21;6.25;;;6.05;;
12800;SDS011;6464;42.494;27.470;2023-04-25T09:39:50;6.70;;;6.50;;
12800;SDS011;6464;42.494;27.470;2023-04-25T09:42:17;7.07;;;6.88;;
12800;SDS011;6464;42.494;27.470;2023-04-25T09:44:51;7.63;;;7.43;;
12800;SDS011;6464;42.494;27.470;2023-04-25T09:47:18;7.40;;;7.20;;
12800;SDS011;6464;42.494;27.470;2023-04-25T09:49:48;7.25;;;7.05;;
12800;SDS011;6464;42.494;27.470;2023-04-25T09:52:16;7.30;;;7.10;;
12800;SDS011;6464;42.494;27.470;2023-04-25T09:54:44;7.00;;;6.80;;
12800;SDS011;6464;42.494;27.470;2023-04-25T09:57:12;7.03;;;6.82;;
12800;SDS011;6464;42.494;27.470;2023-04-25T09:59:42;9.30;;;9.00;;
12800;SDS011;6464;42.494;27.470;2023-04-25T10:02:12;8.88;;;8.57;;
12800;SDS011;6464;42.494;27.470;2023-04-25T10:04:41;8.27;;;8.00;;
12800;SDS011;6464;42.494;27.470;2023-04-25T10:07:11;7.35;;;7.15;;
12800;SDS011;6464;42.494;27.470;2023-04-25T10:09:39;7.60;;;7.40;;
12800;SDS011;6464;42.494;27.470;2023-04-25T10:12:07;7.40;;;7.20;;
12800;SDS011;6464;42.494;27.470;2023-04-25T10:14:34;7.22;;;7.03;;
12800;SDS011;6464;42.494;27.470;2023-04-25T10:17:02;7.32;;;7.13;;
12800;SDS011;6464;42.494;27.470;2023-04-25T10:19:30;7.20;;;7.00;;
12800;SDS011;6464;42.494;27.470;2023-04-25T10:22:01;7.32;;;7.13;;
12800;SDS011;6464;42.494;27.470;2023-04-25T10:24:32;7.20;;;7.00;;
12800;SDS011;6464;42.494;27.470;2023-04-25T10:27:00;6.90;;;6.70;;
12800;SDS011;6464;42.494;27.470;2023-04-25T10:29:28;7.55;;;7.35;;
12800;SDS011;6464;42.494;27.470;2023-04-25T10:31:55;7.90;;;7.70;;
12800;SDS011;6464;42.494;27.470;2023-04-25T10:34:38;7.38;;;7.18;;
12800;SDS011;6464;42.494;27.470;2023-04-25T10:37:08;7.53;;;7.32;;
12800;SDS011;6464;42.494;27.470;2023-04-25T10:39:37;7.30;;;7.10;;
12800;SDS011;6464;42.494;27.470;2023-04-25T10:42:06;7.30;;;7.10;;
12800;SDS011;6464;42.494;27.470;2023-04-25T10:44:34;7.38;;;7.18;;
12800;SDS011;6464;42.494;27.470;2023-04-25T10:47:03;7.60;;;7.40;;
12800;SDS011;6464;42.494;27.470;2023-04-25T10:49:33;7.43;;;7.22;;
12800;SDS011;6464;42.494;27.470;2023-04-25T10:52:12;7.32;;;7.13;;
12800;SDS011;6464;42.494;27.470;2023-04-25T10:54:47;7.20;;;7.00;;
12800;SDS011;6464;42.494;27.470;2023-04-25T10:57:29;7.22;;;7.03;;
12800;SDS011;6464;42.494;27.470;2023-04-25T11:00:05;8.48;;;8.18;;
12800;SDS011;6464;42.494;27.470;2023-04-25T11:02:42;8.60;;;8.30;;
12800;SDS011;6464;42.494;27.470;2023-04-25T11:05:18;7.20;;;7.00;;
12800;SDS011;6464;42.494;27.470;2023-04-25T11:07:55;8.90;;;8.60;;
12800;SDS011;6464;42.494;27.470;2023-04-25T11:10:24;9.02;;;8.73;;
12800;SDS011;6464;42.494;27.470;2023-04-25T11:30:34;7.78;;;7.57;;
12800;SDS011;6464;42.494;27.470;2023-04-25T11:33:01;7.82;;;7.63;;
12800;SDS011;6464;42.494;27.470;2023-04-25T11:35:29;7.20;;;7.00;;
12800;SDS011;6464;42.494;27.470;2023-04-25T11:37:55;7.15;;;6.95;;
12800;SDS011;6464;42.494;27.470;2023-04-25T11:40:22;7.10;;;6.90;;
12800;SDS011;6464;42.494;27.470;2023-04-25T11:42:50;7.30;;;7.10;;
12800;SDS011;6464;42.494;27.470;2023-04-25T11:45:17;7.20;;;7.00;;
12800;SDS011;6464;42.494;27.470;2023-04-25T11:47:46;7.18;;;6.97;;
12800;SDS011;6464;42.494;27.470;2023-04-25T11:50:13;7.10;;;6.90;;
12800;SDS011;6464;42.494;27.470;2023-04-25T11:52:41;7.20;;;7.00;;
12800;SDS011;6464;42.494;27.470;2023-04-25T11:55:09;7.30;;;7.10;;
12800;SDS011;6464;42.494;27.470;2023-04-25T11:57:39;7.60;;;7.40;;
12800;SDS011;6464;42.494;27.470;2023-04-25T12:00:08;7.55;;;7.35;;
12800;SDS011;6464;42.494;27.470;2023-04-25T12:02:37;7.60;;;7.40;;
12800;SDS011;6464;42.494;27.470;2023-04-25T12:05:08;7.30;;;7.10;;
12800;SDS011;6464;42.494;27.470;2023-04-25T12:07:38;7.25;;;7.05;;
12800;SDS011;6464;42.494;27.470;2023-04-25T12:10:07;7.40;;;7.20;;
12800;SDS011;6464;42.494;27.470;2023-04-25T12:15:53;6.55;;;6.35;;
12800;SDS011;6464;42.494;27.470;2023-04-25T12:21:54;5.40;;;5.30;;
12800;SDS011;6464;42.494;27.470;2023-04-25T12:24:23;5.40;;;5.30;;
12800;SDS011;6464;42.494;27.470;2023-04-25T12:26:52;5.95;;;5.85;;
12800;SDS011;6464;42.494;27.470;2023-04-25T12:29:26;5.70;;;5.60;;
12800;SDS011;6464;42.494;27.470;2023-04-25T12:31:54;6.20;;;6.00;;
12800;SDS011;6464;42.494;27.470;2023-04-25T12:34:22;6.00;;;5.90;;
12800;SDS011;6464;42.494;27.470;2023-04-25T12:36:50;6.00;;;5.90;;
12800;SDS011;6464;42.494;27.470;2023-04-25T12:39:20;6.50;;;6.30;;
12800;SDS011;6464;42.494;27.470;2023-04-25T12:41:48;6.60;;;6.40;;
12800;SDS011;6464;42.494;27.470;2023-04-25T12:44:16;6.40;;;6.20;;
12800;SDS011;6464;42.494;27.470;2023-04-25T12:46:43;6.65;;;6.45;;
12800;SDS011;6464;42.494;27.470;2023-04-25T12:49:10;6.50;;;6.30;;
12800;SDS011;6464;42.494;27.470;2023-04-25T12:51:37;6.70;;;6.50;;
12800;SDS011;6464;42.494;27.470;2023-04-25T12:54:04;7.00;;;6.80;;
12800;SDS011;6464;42.494;27.470;2023-04-25T12:56:33;6.95;;;6.75;;
12800;SDS011;6464;42.494;27.470;2023-04-25T12:59:01;7.00;;;6.80;;
12800;SDS011;6464;42.494;27.470;2023-04-25T13:01:29;6.82;;;6.63;;
12800;SDS011;6464;42.494;27.470;2023-04-25T13:03:56;7.50;;;7.30;;
12800;SDS011;6464;42.494;27.470;2023-04-25T13:06:22;7.20;;;7.00;;
12800;SDS011;6464;42.494;27.470;2023-04-25T13:08:50;7.20;;;7.00;;
12800;SDS011;6464;42.494;27.470;2023-04-25T13:11:16;7.28;;;7.07;;
12800;SDS011;6464;42.494;27.470;2023-04-25T13:13:45;7.50;;;7.30;;
12800;SDS011;6464;42.494;27.470;2023-04-25T13:16:12;7.43;;;7.22;;
12800;SDS011;6464;42.494;27.470;2023-04-25T13:18:39;7.50;;;7.30;;
12800;SDS011;6464;42.494;27.470;2023-04-25T13:21:09;7.72;;;7.53;;
12800;SDS011;6464;42.494;27.470;2023-04-25T13:23:37;7.15;;;6.95;;
12800;SDS011;6464;42.494;27.470;2023-04-25T13:26:05;8.20;;;7.93;;
12800;SDS011;6464;42.494;27.470;2023-04-25T13:28:32;7.57;;;7.38;;
12800;SDS011;6464;42.494;27.470;2023-04-25T13:31:00;7.25;;;7.05;;
12800;SDS011;6464;42.494;27.470;2023-04-25T13:33:28;7.00;;;6.80;;
12800;SDS011;6464;42.494;27.470;2023-04-25T13:35:55;7.03;;;6.82;;
12800;SDS011;6464;42.494;27.470;2023-04-25T13:38:22;7.00;;;6.80;;
12800;SDS011;6464;42.494;27.470;2023-04-25T13:40:50;7.00;;;6.80;;
12800;SDS011;6464;42.494;27.470;2023-04-25T13:43:18;7.05;;;6.85;;
12800;SDS011;6464;42.494;27.470;2023-04-25T13:45:46;7.30;;;7.10;;
12800;SDS011;6464;42.494;27.470;2023-04-25T13:48:15;7.40;;;7.20;;
12800;SDS011;6464;42.494;27.470;2023-04-25T13:50:42;7.18;;;6.97;;
12800;SDS011;6464;42.494;27.470;2023-04-25T13:53:09;7.28;;;7.07;;
12800;SDS011;6464;42.494;27.470;2023-04-25T13:55:36;7.47;;;7.28;;
12800;SDS011;6464;42.494;27.470;2023-04-25T13:58:03;7.70;;;7.50;;
12800;SDS011;6464;42.494;27.470;2023-04-25T14:00:33;7.88;;;7.68;;
12800;SDS011;6464;42.494;27.470;2023-04-25T14:03:03;7.40;;;7.20;;
12800;SDS011;6464;42.494;27.470;2023-04-25T14:05:33;7.25;;;7.05;;
12800;SDS011;6464;42.494;27.470;2023-04-25T14:08:05;7.40;;;7.20;;
12800;SDS011;6464;42.494;27.470;2023-04-25T14:10:33;7.35;;;7.15;;
12800;SDS011;6464;42.494;27.470;2023-04-25T14:13:00;7.13;;;6.93;;
12800;SDS011;6464;42.494;27.470;2023-04-25T14:15:28;7.20;;;7.00;;
12800;SDS011;6464;42.494;27.470;2023-04-25T14:28:12;5.68;;;5.57;;
12800;SDS011;6464;42.494;27.470;2023-04-25T14:30:54;5.90;;;5.80;;
12800;SDS011;6464;42.494;27.470;2023-04-25T14:33:36;5.95;;;5.85;;
12800;SDS011;6464;42.494;27.470;2023-04-25T14:36:13;5.85;;;5.75;;
12800;SDS011;6464;42.494;27.470;2023-04-25T14:38:54;6.20;;;6.00;;
12800;SDS011;6464;42.494;27.470;2023-04-25T15:15:42;5.88;;;5.78;;
12800;SDS011;6464;42.494;27.470;2023-04-25T15:18:17;6.00;;;5.90;;
12800;SDS011;6464;42.494;27.470;2023-04-25T15:20:47;6.43;;;6.22;;
12800;SDS011;6464;42.494;27.470;2023-04-25T15:23:14;8.00;;;7.80;;
12800;SDS011;6464;42.494;27.470;2023-04-25T15:25:41;7.80;;;7.60;;
12800;SDS011;6464;42.494;27.470;2023-04-25T15:28:08;8.30;;;8.00;;
12800;SDS011;6464;42.494;27.470;2023-04-25T15:30:35;8.27;;;8.00;;
12800;SDS011;6464;42.494;27.470;2023-04-25T15:33:04;7.80;;;7.60;;
12800;SDS011;6464;42.494;27.470;2023-04-25T15:35:36;7.30;;;7.10;;
12800;SDS011;6464;42.494;27.470;2023-04-25T15:38:08;7.88;;;7.68;;
12800;SDS011;6464;42.494;27.470;2023-04-25T16:10:25;5.50;;;5.40;;
12800;SDS011;6464;42.494;27.470;2023-04-25T16:13:11;5.40;;;5.30;;
12800;SDS011;6464;42.494;27.470;2023-04-25T16:15:45;5.60;;;5.50;;
12800;SDS011;6464;42.494;27.470;2023-04-25T16:18:16;5.20;;;5.10;;
12800;SDS011;6464;42.494;27.470;2023-04-25T16:21:02;5.20;;;5.10;;
12800;SDS011;6464;42.494;27.470;2023-04-25T16:23:46;4.90;;;4.80;;
12800;SDS011;6464;42.494;27.470;2023-04-25T16:26:34;4.47;;;4.38;;
12800;SDS011;6464;42.494;27.470;2023-04-25T16:29:05;5.00;;;4.90;;
12800;SDS011;6464;42.494;27.470;2023-04-25T16:31:36;4.80;;;4.70;;
12800;SDS011;6464;42.494;27.470;2023-04-25T16:34:14;4.70;;;4.60;;
12800;SDS011;6464;42.494;27.470;2023-04-25T16:36:46;4.90;;;4.80;;
12800;SDS011;6464;42.494;27.470;2023-04-25T16:39:14;4.72;;;4.63;;
12800;SDS011;6464;42.494;27.470;2023-04-25T16:41:48;4.82;;;4.72;;
12800;SDS011;6464;42.494;27.470;2023-04-25T16:44:18;4.80;;;4.70;;
12800;SDS011;6464;42.494;27.470;2023-04-25T16:46:53;4.80;;;4.70;;
12800;SDS011;6464;42.494;27.470;2023-04-25T16:49:30;4.90;;;4.80;;
12800;SDS011;6464;42.494;27.470;2023-04-25T16:52:17;4.70;;;4.60;;
12800;SDS011;6464;42.494;27.470;2023-04-25T16:54:50;4.10;;;4.00;;
12800;SDS011;6464;42.494;27.470;2023-04-25T16:57:30;3.00;;;3.00;;
12800;SDS011;6464;42.494;27.470;2023-04-25T17:00:20;2.00;;;2.00;;
12800;SDS011;6464;42.494;27.470;2023-04-25T17:03:19;1.80;;;1.80;;
12800;SDS011;6464;42.494;27.470;2023-04-25T17:05:49;1.60;;;1.60;;
12800;SDS011;6464;42.494;27.470;2023-04-25T17:08:33;1.70;;;1.70;;
12800;SDS011;6464;42.494;27.470;2023-04-25T17:11:07;1.60;;;1.60;;
12800;SDS011;6464;42.494;27.470;2023-04-25T17:13:46;1.60;;;1.60;;
12800;SDS011;6464;42.494;27.470;2023-04-25T17:16:17;1.60;;;1.60;;
12800;SDS011;6464;42.494;27.470;2023-04-25T17:18:47;1.50;;;1.50;;
12800;SDS011;6464;42.494;27.470;2023-04-25T17:21:18;1.40;;;1.40;;
12800;SDS011;6464;42.494;27.470;2023-04-25T17:23:49;1.50;;;1.50;;
12800;SDS011;6464;42.494;27.470;2023-04-25T17:26:23;1.45;;;1.45;;
12800;SDS011;6464;42.494;27.470;2023-04-25T17:29:12;1.60;;;1.60;;
12800;SDS011;6464;42.494;27.470;2023-04-25T17:31:42;1.80;;;1.80;;
12800;SDS011;6464;42.494;27.470;2023-04-25T17:34:20;1.88;;;1.88;;
12800;SDS011;6464;42.494;27.470;2023-04-25T17:37:02;1.90;;;1.90;;
12800;SDS011;6464;42.494;27.470;2023-04-25T17:39:32;2.10;;;2.10;;
12800;SDS011;6464;42.494;27.470;2023-04-25T17:42:08;2.00;;;2.00;;
12800;SDS011;6464;42.494;27.470;2023-04-25T17:44:53;2.00;;;2.00;;
12800;SDS011;6464;42.494;27.470;2023-04-25T17:47:24;2.13;;;2.13;;
12800;SDS011;6464;42.494;27.470;2023-04-25T17:49:59;2.10;;;2.10;;
12800;SDS011;6464;42.494;27.470;2023-04-25T17:52:42;2.10;;;2.10;;
12800;SDS011;6464;42.494;27.470;2023-04-25T17:55:15;1.90;;;1.90;;
12800;SDS011;6464;42.494;27.470;2023-04-25T17:57:50;1.70;;;1.70;;
12800;SDS011;6464;42.494;27.470;2023-04-25T18:00:22;1.50;;;1.50;;
12800;SDS011;6464;42.494;27.470;2023-04-25T18:02:52;1.40;;;1.40;;
12800;SDS011;6464;42.494;27.470;2023-04-25T18:05:22;1.20;;;1.20;;
12800;SDS011;6464;42.494;27.470;2023-04-25T18:07:54;1.02;;;1.02;;
12800;SDS011;6464;42.494;27.470;2023-04-25T18:10:23;1.10;;;1.10;;
12800;SDS011;6464;42.494;27.470;2023-04-25T18:12:52;1.10;;;1.10;;
12800;SDS011;6464;42.494;27.470;2023-04-25T18:15:23;1.10;;;1.10;;
12800;SDS011;6464;42.494;27.470;2023-04-25T18:17:53;1.00;;;1.00;;
12800;SDS011;6464;42.494;27.470;2023-04-25T18:20:27;1.00;;;1.00;;
12800;SDS011;6464;42.494;27.470;2023-04-25T18:22:58;0.80;;;0.80;;
12800;SDS011;6464;42.494;27.470;2023-04-25T18:25:26;1.00;;;1.00;;
12800;SDS011;6464;42.494;27.470;2023-04-25T18:27:56;1.00;;;1.00;;
12800;SDS011;6464;42.494;27.470;2023-04-25T18:30:42;1.10;;;1.10;;
12800;SDS011;6464;42.494;27.470;2023-04-25T18:33:17;1.10;;;1.10;;
12800;SDS011;6464;42.494;27.470;2023-04-25T18:35:48;1.30;;;1.30;;
12800;SDS011;6464;42.494;27.470;2023-04-25T18:38:29;1.38;;;1.38;;
12800;SDS011;6464;42.494;27.470;2023-04-25T18:40:59;1.70;;;1.70;;
12800;SDS011;6464;42.494;27.470;2023-04-25T18:43:31;1.45;;;1.45;;
12800;SDS011;6464;42.494;27.470;2023-04-25T18:46:06;0.80;;;0.80;;
12800;SDS011;6464;42.494;27.470;2023-04-25T18:48:35;0.70;;;0.70;;
12800;SDS011;6464;42.494;27.470;2023-04-25T18:51:08;0.50;;;0.50;;
12800;SDS011;6464;42.494;27.470;2023-04-25T18:53:52;0.50;;;0.50;;
12800;SDS011;6464;42.494;27.470;2023-04-25T18:56:23;0.40;;;0.40;;
12800;SDS011;6464;42.494;27.470;2023-04-25T18:58:54;0.40;;;0.40;;
12800;SDS011;6464;42.494;27.470;2023-04-25T19:01:26;0.40;;;0.40;;
12800;SDS011;6464;42.494;27.470;2023-04-25T19:04:06;0.30;;;0.30;;
12800;SDS011;6464;42.494;27.470;2023-04-25T19:06:34;0.40;;;0.40;;
12800;SDS011;6464;42.494;27.470;2023-04-25T19:09:05;0.30;;;0.30;;
12800;SDS011;6464;42.494;27.470;2023-04-25T19:11:34;0.30;;;0.30;;
12800;SDS011;6464;42.494;27.470;2023-04-25T19:14:02;0.30;;;0.30;;
12800;SDS011;6464;42.494;27.470;2023-04-25T19:16:36;0.40;;;0.40;;
12800;SDS011;6464;42.494;27.470;2023-04-25T19:19:05;0.30;;;0.30;;
12800;SDS011;6464;42.494;27.470;2023-04-25T19:21:38;0.30;;;0.30;;
12800;SDS011;6464;42.494;27.470;2023-04-25T19:24:10;0.30;;;0.30;;
12800;SDS011;6464;42.494;27.470;2023-04-25T19:26:42;0.40;;;0.40;;
12800;SDS011;6464;42.494;27.470;2023-04-25T19:29:12;0.40;;;0.40;;
12800;SDS011;6464;42.494;27.470;2023-04-25T19:31:50;0.40;;;0.40;;
12800;SDS011;6464;42.494;27.470;2023-04-25T19:34:21;0.30;;;0.30;;
12800;SDS011;6464;42.494;27.470;2023-04-25T19:36:57;0.40;;;0.40;;
12800;SDS011;6464;42.494;27.470;2023-04-25T19:39:34;0.47;;;0.47;;
12800;SDS011;6464;42.494;27.470;2023-04-25T19:42:11;0.50;;;0.50;;
12800;SDS011;6464;42.494;27.470;2023-04-25T19:44:45;0.40;;;0.40;;
12800;SDS011;6464;42.494;27.470;2023-04-25T19:47:20;0.30;;;0.30;;
12800;SDS011;6464;42.494;27.470;2023-04-25T19:49:53;0.30;;;0.30;;
12800;SDS011;6464;42.494;27.470;2023-04-25T19:52:29;0.30;;;0.30;;
12800;SDS011;6464;42.494;27.470;2023-04-25T19:55:01;0.30;;;0.30;;
12800;SDS011;6464;42.494;27.470;2023-04-25T19:57:31;0.20;;;0.20;;
12800;SDS011;6464;42.494;27.470;2023-04-25T20:00:00;0.20;;;0.20;;
12800;SDS011;6464;42.494;27.470;2023-04-25T20:02:32;0.20;;;0.20;;
12800;SDS011;6464;42.494;27.470;2023-04-25T20:07:50;0.30;;;0.30;;
12800;SDS011;6464;42.494;27.470;2023-04-25T20:10:19;0.30;;;0.30;;
12800;SDS011;6464;42.494;27.470;2023-04-25T20:12:49;0.30;;;0.30;;
12800;SDS011;6464;42.494;27.470;2023-04-25T20:15:16;0.38;;;0.38;;
12800;SDS011;6464;42.494;27.470;2023-04-25T20:17:46;0.30;;;0.30;;
12800;SDS011;6464;42.494;27.470;2023-04-25T20:20:13;0.30;;;0.30;;
12800;SDS011;6464;42.494;27.470;2023-04-25T20:22:41;0.30;;;0.30;;
12800;SDS011;6464;42.494;27.470;2023-04-25T20:25:13;0.30;;;0.30;;
12800;SDS011;6464;42.494;27.470;2023-04-25T20:27:43;0.30;;;0.30;;
12800;SDS011;6464;42.494;27.470;2023-04-25T20:30:14;0.38;;;0.38;;
12800;SDS011;6464;42.494;27.470;2023-04-25T20:32:43;0.30;;;0.30;;
12800;SDS011;6464;42.494;27.470;2023-04-25T20:35:14;0.30;;;0.30;;
12800;SDS011;6464;42.494;27.470;2023-04-25T20:37:42;0.20;;;0.20;;
12800;SDS011;6464;42.494;27.470;2023-04-25T20:40:19;0.20;;;0.20;;
12800;SDS011;6464;42.494;27.470;2023-04-25T20:42:52;0.10;;;0.10;;
12800;SDS011;6464;42.494;27.470;2023-04-25T20:45:21;0.10;;;0.10;;
12800;SDS011;6464;42.494;27.470;2023-04-25T20:47:58;0.00;;;0.00;;
12800;SDS011;6464;42.494;27.470;2023-04-25T20:50:28;0.00;;;0.00;;
12800;SDS011;6464;42.494;27.470;2023-04-25T20:52:56;0.00;;;0.00;;
12800;SDS011;6464;42.494;27.470;2023-04-25T20:55:27;0.00;;;0.00;;
12800;SDS011;6464;42.494;27.470;2023-04-25T20:57:55;0.00;;;0.00;;
12800;SDS011;6464;42.494;27.470;2023-04-25T21:00:28;0.00;;;0.00;;
12800;SDS011;6464;42.494;27.470;2023-04-25T21:07:46;0.00;;;0.00;;
12800;SDS011;6464;42.494;27.470;2023-04-25T21:10:14;0.00;;;0.00;;
12800;SDS011;6464;42.494;27.470;2023-04-25T21:12:43;0.00;;;0.00;;
12800;SDS011;6464;42.494;27.470;2023-04-25T21:15:13;0.00;;;0.00;;
12800;SDS011;6464;42.494;27.470;2023-04-25T21:17:42;0.00;;;0.00;;
12800;SDS011;6464;42.494;27.470;2023-04-25T21:20:11;0.00;;;0.00;;
12800;SDS011;6464;42.494;27.470;2023-04-25T21:22:40;0.00;;;0.00;;
12800;SDS011;6464;42.494;27.470;2023-04-25T21:25:15;0.00;;;0.00;;
12800;SDS011;6464;42.494;27.470;2023-04-25T21:27:45;0.00;;;0.00;;
12800;SDS011;6464;42.494;27.470;2023-04-25T21:30:14;0.00;;;0.00;;
12800;SDS011;6464;42.494;27.470;2023-04-25T21:32:42;0.00;;;0.00;;
12800;SDS011;6464;42.494;27.470;2023-04-25T21:35:11;0.00;;;0.00;;
12800;SDS011;6464;42.494;27.470;2023-04-25T21:37:38;0.00;;;0.00;;
12800;SDS011;6464;42.494;27.470;2023-04-25T21:40:06;0.00;;;0.00;;
12800;SDS011;6464;42.494;27.470;2023-04-25T21:42:36;0.00;;;0.00;;